Weather observations for the past three days for
St. Inigoes, Webster Field, Naval Electronic Systems Engineering Activity
Metric (Imperial)
Date Time (edt) Wind (kph) Vis. (km) Weather Sky Cond. Temperature (ºC) Relative Humidity Wind Chill (°C) Heat Index (°C) Pressure Precipitation (cm)
Air Dwpt 6 hour altimeter (cm) sea level (mb) 1 hr 3 hr 6 hr
Max. Min.
09 11:53 S 17 G 33 16.09 Fair CLR 21.7 11.1 51% 75.84 1011.2
09 08:53 S 11 16.09 Fair CLR 16.7 11.7 73% 75.97 1012.7
09 07:53 S 15 16.09 Fair CLR 15.6 11.1 15.6 13.9 75% 75.97 1012.7
09 06:53 S 20 G 33 16.09 Fair CLR 14.4 10.6 78% 75.97 1012.8
09 05:53 S 15 G 31 16.09 Fair CLR 13.9 10 78% 75.97 1012.6
09 04:53 S 15 16.09 Fair CLR 13.9 10.6 81% 75.95 1012.5
09 03:53 Vrbl 9 16.09 Fair CLR 14.4 10.6 78% 75.97 1012.8
09 02:53 S 15 16.09 Fair CLR 14.4 10.6 78% 76 1013.1
09 00:53 S 13 16.09 Fair CLR 13.9 10 78% 76.02 1013.4
08 21:53 S 13 16.09 NULL NULL 14.4 8.3 67% 76.05 1013.8
08 20:53 S 19 G 30 16.09 Fair CLR 15 7.2 60% 76.02 1013.4
08 19:53 SE 17 G 30 16.09 Fair CLR 16.1 7.8 20 16.1 58% 75.97 1012.9
08 18:53 S 19 G 30 16.09 Fair CLR 17.8 7.2 50% 75.97 1012.6
08 17:53 S 17 G 31 16.09 Fair CLR 18.9 4.4 39% 75.97 1012.7
08 16:53 S 13 16.09 Fair CLR 20 4.4 36% 75.97 1012.9
08 14:53 Vrbl 11 16.09 Fair CLR 19.4 2.8 33% 76.07 1014.0
08 13:53 S 13 16.09 Fair CLR 17.8 3.3 18.9 11.7 38% 76.12 1014.9
08 12:53 S 11 16.09 Fair CLR 17.2 2.2 37% 76.17 1015.5
08 11:53 S 17 16.09 Fair CLR 17.2 3.3 40% 76.23 1016.2
08 10:53 SW 13 16.09 Fair CLR 15.6 3.3 44% 76.25 1016.4
08 09:53 Vrbl 6 16.09 Fair CLR 14.4 3.9 50% 76.25 1016.4
08 07:53 Calm 16.09 Fair CLR 11.7 5.6 11.7 6.7 66% 76.2 1015.7
08 06:53 Calm 16.09 Fair CLR 7.2 6.1 93% 76.12 1014.9
08 05:53 Vrbl 6 16.09 Fair CLR 10 6.1 77% 76.07 1014.2
08 04:53 Vrbl 6 16.09 Fair CLR 10.6 7.8 83% 76.02 1013.5
08 03:53 NW 9 16.09 Fair CLR 11.7 10.6 93% 75.97 1012.8
08 02:53 W 7 16.09 Fair CLR 11.1 9.4 89% 75.95 1012.3
08 01:53 Calm 16.09 Fair CLR 10.6 9.4 11.1 10 92% 75.9 1011.9
08 00:53 Calm 9.66 Fog/Mist CLR 10.6 9.4 92% 75.92 1012.0
07 23:53 W 7 16.09 Fair CLR 10.6 8.9 89% 75.9 1011.7
07 22:53 W 9 16.09 Fair CLR 10.6 8.3 86% 75.87 1011.4
07 21:53 W 7 16.09 Fair CLR 10.6 7.8 83% 75.84 1011.1
07 20:53 Vrbl 9 16.09 Mostly Cloudy BKN120 11.1 8.3 83% 75.82 1010.7
07 19:53 SW 9 16.09 Mostly Cloudy BKN110 10.6 8.3 15 10.6 86% 75.77 1010.0 0.2
07 17:53 Calm 16.09 Overcast OVC095 11.1 7.8 80% 75.74 1009.9 0.08
07 16:53 W 6 14.48 Light Rain BKN060 OVC080 11.1 7.8 80% 75.79 1010.4 0.1 0.13
07 15:53 Calm 12.87 Light Rain BKN050 OVC070 11.7 7.2 74% 75.74 1009.8 0.03
07 14:53 Calm 16.09 Overcast OVC060 14.4 4.4 51% 75.77 1010.0
07 13:53 NE 6 16.09 Overcast OVC060 13.9 4.4 14.4 13.3 53% 75.82 1010.6
07 11:53 Vrbl 11 16.09 Overcast OVC048 13.9 3.3 49% 75.9 1011.6
07 09:53 Calm 16.09 Overcast OVC043 14.4 7.8 65% 75.9 1011.8
07 08:53 NE 13 16.09 Overcast OVC041 13.9 8.3 69% 75.9 1011.9
07 07:53 NE 11 16.09 Overcast FEW018 OVC037 13.3 8.9 18.3 12.8 75% 75.87 1011.6 0.03
07 06:53 Calm 16.09 Overcast OVC036 13.9 10 78% 0 1011.5
07 05:53 Calm 16.09 Overcast OVC031 13.9 11.1 83% 75.79 1010.5
07 04:53 Vrbl 11 16.09 Overcast OVC024 14.4 11.7 84% 75.77 1010.2 0.03
07 03:53 Calm 16.09 Overcast OVC014 15.6 13.9 90% 75.77 1010.1 0.03
07 00:53 Calm 16.09 Overcast FEW060 OVC090 17.2 16.1 93% 75.69 1009.1
06 23:53 W 6 0.00 NULL NULL 18.3 16.1 87% 75.72 1009.3
06 21:53 Calm 16.09 Fair CLR 17.2 15.6 90% 75.72 1009.3
06 20:53 S 6 16.09 Fair CLR 18.9 15.6 81% 75.69 1009.1
06 19:53 SW 20 16.09 Fair CLR 21.1 15.6 21.7 19.4 71% 75.67 1008.8
06 17:53 SW 17 16.09 Fair CLR 21.7 16.1 71% 75.69 1009.1
06 16:53 SW 19 16.09 A Few Clouds FEW100 20.6 15.6 73% 75.67 1008.8
06 15:53 SW 26 G 44 16.09 Fair CLR 20.6 15.6 73% 75.69 1008.9
06 14:53 SW 20 16.09 Fair CLR 20 15 73% 75.74 1009.7
06 13:53 SW 19 G 43 16.09 Fair CLR 20 15 20.6 17.2 73% 75.79 1010.5 0.1
Date Time (edt) Wind (kph) Vis. (km) Weather Sky Cond. Air Dwpt Max. Min. Relative Humidity Wind Chill (°C) Heat Index (°C) altimeter (cm) sea level (mb) 1 hr 3 hr 6 hr
6 hour
Temperature (ºC) Pressure Precipitation (cm)